createdAt,value
2017-02-19T10:37:28.164Z,1014.89
2017-02-19T10:38:09.181Z,1014.85
2017-02-19T10:38:50.180Z,1014.97
2017-02-19T10:39:30.841Z,1014.88
2017-02-19T10:40:11.434Z,1014.89
2017-02-19T10:40:52.031Z,1014.84
2017-02-19T10:41:32.603Z,1014.84
2017-02-19T10:42:13.199Z,1014.86
2017-02-19T10:42:53.793Z,1014.8
2017-02-19T10:43:34.396Z,1014.86
2017-02-19T10:44:15.002Z,1014.81
2017-02-19T10:44:55.592Z,1014.8
2017-02-19T10:45:36.190Z,1014.79
2017-02-19T10:46:16.792Z,1014.79
2017-02-19T10:46:57.386Z,1014.77
2017-02-19T10:47:37.985Z,1014.75
2017-02-19T10:48:18.547Z,1014.74
2017-02-19T10:48:59.118Z,1014.72
2017-02-19T10:49:39.713Z,1014.73
2017-02-19T10:50:20.298Z,1014.68
2017-02-19T10:51:00.905Z,1014.75
2017-02-19T10:51:41.520Z,1014.7
2017-02-19T10:52:22.090Z,1014.71
2017-02-19T10:53:02.668Z,1014.63
2017-02-19T10:53:43.356Z,1014.64
2017-02-19T10:54:23.956Z,1014.64
2017-02-19T10:55:04.535Z,1014.69
2017-02-19T10:55:45.115Z,1014.67
2017-02-19T10:56:25.727Z,1014.63
2017-02-19T10:57:06.320Z,1014.63
2017-02-19T10:57:46.904Z,1014.61
2017-02-19T10:58:27.491Z,1014.56
2017-02-19T10:59:08.057Z,1014.59
2017-02-19T10:59:48.697Z,1014.51
2017-02-19T11:00:29.227Z,1014.46
2017-02-19T11:01:09.792Z,1014.48
2017-02-19T11:01:50.366Z,1014.45
2017-02-19T11:02:30.933Z,1014.47
2017-02-19T11:03:11.520Z,1014.42
2017-02-19T11:03:52.112Z,1014.5
2017-02-19T11:04:32.666Z,1014.43
2017-02-19T11:05:15.695Z,1014.44
2017-02-19T11:06:03.907Z,1014.37
2017-02-19T11:06:45.273Z,1014.38
2017-02-19T11:07:25.845Z,1014.37
2017-02-19T11:08:06.422Z,1014.37
2017-02-19T11:08:46.994Z,1014.31
2017-02-19T11:09:27.595Z,1014.28
2017-02-19T11:10:08.200Z,1014.27
2017-02-19T11:10:48.791Z,1014.29
2017-02-19T11:11:29.372Z,1014.22
2017-02-19T11:12:10.004Z,1014.27
2017-02-19T11:12:50.593Z,1014.29
2017-02-19T11:13:31.234Z,1014.28
2017-02-19T11:14:11.822Z,1014.21
2017-02-19T11:14:52.408Z,1014.23
2017-02-19T11:15:33.015Z,1014.22
2017-02-19T11:16:13.617Z,1014.2
2017-02-19T11:16:54.189Z,1014.19
2017-02-19T11:17:34.787Z,1014.14
2017-02-19T11:18:15.408Z,1014.15
2017-02-19T11:18:56.042Z,1014.11
2017-02-19T11:19:36.651Z,1014.12
2017-02-19T11:20:17.274Z,1014.08
2017-02-19T11:20:57.857Z,1014.05
2017-02-19T11:21:38.439Z,1014.11
2017-02-19T11:22:19.098Z,1014.1
2017-02-19T11:22:59.841Z,1014.03
2017-02-19T11:23:40.419Z,1014.07
2017-02-19T11:24:20.997Z,1014.04
2017-02-19T11:25:01.598Z,1014.06
2017-02-19T11:25:42.192Z,1014.04
2017-02-19T11:26:22.775Z,1014.08
2017-02-19T11:27:03.372Z,1014
2017-02-19T11:27:44.469Z,1013.99
2017-02-19T11:28:25.097Z,1013.93
2017-02-19T11:29:05.676Z,1013.97
2017-02-19T11:29:46.267Z,1013.98
2017-02-19T11:30:26.844Z,1013.99
2017-02-19T11:31:07.419Z,1013.92
2017-02-19T11:31:48.032Z,1013.88
2017-02-19T11:32:28.632Z,1013.91
2017-02-19T11:33:09.262Z,1013.89
2017-02-19T11:33:49.853Z,1013.84
2017-02-19T11:34:30.434Z,1013.8
2017-02-19T11:35:15.704Z,1013.79
2017-02-19T11:35:56.268Z,1013.8
2017-02-19T11:36:36.841Z,1013.76
2017-02-19T11:37:17.460Z,1013.77
2017-02-19T11:37:58.087Z,1013.71
2017-02-19T11:38:38.653Z,1013.73
2017-02-19T11:39:19.259Z,1013.73
2017-02-19T11:39:59.860Z,1013.72
2017-02-19T11:40:40.485Z,1013.72
2017-02-19T11:41:21.075Z,1013.75
2017-02-19T11:42:01.689Z,1013.69
2017-02-19T11:42:42.275Z,1013.69
2017-02-19T11:43:22.901Z,1013.67
2017-02-19T11:44:03.509Z,1013.64
2017-02-19T11:44:44.163Z,1013.62
2017-02-19T11:45:24.772Z,1013.65
2017-02-19T11:46:05.381Z,1013.66
2017-02-19T11:46:45.981Z,1013.63
2017-02-19T11:47:26.580Z,1013.63
2017-02-19T11:48:07.157Z,1013.64
2017-02-19T11:48:47.724Z,1013.63
2017-02-19T11:49:28.309Z,1013.57
2017-02-19T11:50:08.870Z,1013.56
2017-02-19T11:50:49.476Z,1013.61
2017-02-19T11:51:30.066Z,1013.65
2017-02-19T11:52:10.656Z,1013.63
2017-02-19T11:52:51.235Z,1013.58
2017-02-19T11:53:31.833Z,1013.57
2017-02-19T11:54:12.421Z,1013.58
2017-02-19T11:54:52.998Z,1013.56
2017-02-19T11:55:33.617Z,1013.57
2017-02-19T11:56:14.185Z,1013.54
2017-02-19T11:56:54.767Z,1013.49
2017-02-19T11:57:35.378Z,1013.49
2017-02-19T11:58:15.981Z,1013.5
2017-02-19T11:58:56.598Z,1013.49
2017-02-19T11:59:37.245Z,1013.51
2017-02-19T12:00:17.839Z,1013.48
2017-02-19T12:00:58.461Z,1013.45
2017-02-19T12:01:39.050Z,1013.41
2017-02-19T12:02:19.637Z,1013.39
2017-02-19T12:03:00.231Z,1013.41
2017-02-19T12:03:40.860Z,1013.35
2017-02-19T12:04:21.548Z,1013.42
2017-02-19T12:05:02.187Z,1013.39
2017-02-19T12:05:42.772Z,1013.37
2017-02-19T12:06:23.335Z,1013.35
2017-02-19T12:07:03.988Z,1013.31
2017-02-19T12:07:44.610Z,1013.32
2017-02-19T12:08:25.200Z,1013.27
2017-02-19T12:09:05.801Z,1013.28
2017-02-19T12:09:46.392Z,1013.31
2017-02-19T12:10:26.969Z,1013.25
2017-02-19T12:11:07.556Z,1013.3
2017-02-19T12:11:48.155Z,1013.27
2017-02-19T12:12:28.712Z,1013.27
2017-02-19T12:13:09.277Z,1013.26
2017-02-19T12:13:49.879Z,1013.27
2017-02-19T12:14:30.458Z,1013.25
2017-02-19T12:15:11.075Z,1013.24
2017-02-19T12:15:51.756Z,1013.25
2017-02-19T12:16:32.335Z,1013.24
2017-02-19T12:17:12.928Z,1013.26
2017-02-19T12:17:53.523Z,1013.26
2017-02-19T12:18:34.191Z,1013.24
2017-02-19T12:19:14.834Z,1013.25
2017-02-19T12:19:55.515Z,1013.22
2017-02-19T12:20:36.096Z,1013.28
2017-02-19T12:21:16.674Z,1013.23
2017-02-19T12:21:57.303Z,1013.23
2017-02-19T12:22:37.892Z,1013.18
2017-02-19T12:23:18.490Z,1013.16
2017-02-19T12:23:59.075Z,1013.15
2017-02-19T12:24:39.647Z,1013.1
2017-02-19T12:25:20.267Z,1013.11
2017-02-19T12:26:00.839Z,1013.1
2017-02-19T12:26:41.433Z,1013.11
2017-02-19T12:27:22.008Z,1013.11
2017-02-19T12:28:02.620Z,1013.05
2017-02-19T12:28:43.202Z,1013.09
2017-02-19T12:29:24.669Z,1013.06
2017-02-19T12:30:05.279Z,1013.12
2017-02-19T12:30:45.848Z,1013.16
2017-02-19T12:31:26.421Z,1013.15
2017-02-19T12:32:07.022Z,1013.17
2017-02-19T12:32:47.652Z,1013.13
2017-02-19T12:33:28.310Z,1013.11
2017-02-19T12:34:08.913Z,1013.1
2017-02-19T12:34:49.492Z,1013.08
2017-02-19T12:35:30.165Z,1013.09
2017-02-19T12:36:11.098Z,1013.08
2017-02-19T12:36:51.678Z,1013.05
2017-02-19T12:37:32.263Z,1013.05
2017-02-19T12:38:12.833Z,1013.03
2017-02-19T12:38:53.461Z,1013.01
2017-02-19T12:39:34.053Z,1013.01
2017-02-19T12:40:14.670Z,1013.03
2017-02-19T12:40:55.301Z,1012.96
2017-02-19T12:41:35.853Z,1013.01
2017-02-19T12:42:16.466Z,1013.04
2017-02-19T12:42:57.087Z,1013.04
2017-02-19T12:43:37.659Z,1013.01
2017-02-19T12:44:18.265Z,1012.98
2017-02-19T12:44:58.886Z,1013.01
2017-02-19T12:45:39.498Z,1012.98
2017-02-19T12:46:20.143Z,1012.99
2017-02-19T12:47:00.709Z,1012.95
2017-02-19T12:47:41.306Z,1013
2017-02-19T12:48:21.913Z,1012.93
2017-02-19T12:49:02.545Z,1012.94
2017-02-19T12:49:43.145Z,1012.93
2017-02-19T12:50:23.794Z,1012.96
2017-02-19T12:51:04.476Z,1012.96
2017-02-19T12:51:45.061Z,1012.96
2017-02-19T12:52:25.625Z,1012.89
2017-02-19T12:53:06.211Z,1012.94
2017-02-19T12:53:46.803Z,1012.94
2017-02-19T12:54:27.403Z,1012.91
2017-02-19T12:55:08.048Z,1012.87
2017-02-19T12:55:48.645Z,1012.9
2017-02-19T12:56:29.295Z,1012.91
2017-02-19T12:57:09.868Z,1012.9
2017-02-19T12:57:50.479Z,1012.9
2017-02-19T12:58:31.061Z,1012.9
2017-02-19T12:59:11.662Z,1012.93
2017-02-19T12:59:52.220Z,1012.86
2017-02-19T13:00:32.836Z,1012.83
2017-02-19T13:01:13.411Z,1012.82
2017-02-19T13:01:54.661Z,1012.82
2017-02-19T13:02:35.244Z,1012.85
2017-02-19T13:03:15.818Z,1012.81
2017-02-19T13:03:56.410Z,1012.79
2017-02-19T13:04:37.038Z,1012.76
2017-02-19T13:05:17.629Z,1012.76
2017-02-19T13:05:58.195Z,1012.72
2017-02-19T13:06:38.776Z,1012.7
2017-02-19T13:07:19.346Z,1012.73
2017-02-19T13:07:59.924Z,1012.75
2017-02-19T13:08:40.495Z,1012.69
2017-02-19T13:09:21.076Z,1012.7
2017-02-19T13:10:01.657Z,1012.72
2017-02-19T13:10:42.242Z,1012.72
2017-02-19T13:11:22.812Z,1012.73
2017-02-19T13:12:03.397Z,1012.76
2017-02-19T13:12:44.033Z,1012.71
2017-02-19T13:13:24.690Z,1012.68
2017-02-19T13:14:05.297Z,1012.68
2017-02-19T13:14:45.877Z,1012.69
2017-02-19T13:15:26.536Z,1012.7
2017-02-19T13:16:07.122Z,1012.69
2017-02-19T13:16:47.702Z,1012.65
2017-02-19T13:17:28.276Z,1012.71
2017-02-19T13:18:08.862Z,1012.63
2017-02-19T13:18:49.459Z,1012.6
2017-02-19T13:19:30.052Z,1012.61
2017-02-19T13:20:10.647Z,1012.61
2017-02-19T13:20:51.242Z,1012.54
2017-02-19T13:21:31.815Z,1012.57
2017-02-19T13:22:12.424Z,1012.57
2017-02-19T13:22:53.033Z,1012.58
2017-02-19T13:23:33.626Z,1012.54
2017-02-19T13:24:14.298Z,1012.52
2017-02-19T13:24:54.967Z,1012.54
2017-02-19T13:25:35.591Z,1012.57
2017-02-19T13:26:16.186Z,1012.59
2017-02-19T13:26:56.782Z,1012.56
2017-02-19T13:27:37.394Z,1012.59
2017-02-19T13:28:17.986Z,1012.56
2017-02-19T13:28:58.586Z,1012.55
2017-02-19T13:29:39.185Z,1012.56
2017-02-19T13:30:19.798Z,1012.57
2017-02-19T13:31:00.395Z,1012.56
2017-02-19T13:31:40.968Z,1012.55
2017-02-19T13:32:21.546Z,1012.53
2017-02-19T13:33:02.190Z,1012.52
2017-02-19T13:33:42.744Z,1012.5
2017-02-19T13:34:23.332Z,1012.49
2017-02-19T13:35:03.938Z,1012.49
2017-02-19T13:35:44.539Z,1012.47
2017-02-19T13:36:25.193Z,1012.48
2017-02-19T13:37:05.840Z,1012.52
2017-02-19T13:37:46.376Z,1012.51
2017-02-19T13:38:26.956Z,1012.46
2017-02-19T13:39:07.568Z,1012.49
2017-02-19T13:39:48.167Z,1012.47
2017-02-19T13:40:28.793Z,1012.51
2017-02-19T13:41:09.395Z,1012.5
2017-02-19T13:41:50.017Z,1012.5
2017-02-19T13:42:30.678Z,1012.45
2017-02-19T13:43:11.243Z,1012.46
2017-02-19T13:43:51.822Z,1012.47
2017-02-19T13:44:32.447Z,1012.52
2017-02-19T13:45:13.020Z,1012.46
2017-02-19T13:45:53.621Z,1012.48
2017-02-19T13:46:34.227Z,1012.48
2017-02-19T13:47:14.830Z,1012.45
2017-02-19T13:47:55.465Z,1012.49
2017-02-19T13:48:36.054Z,1012.45
2017-02-19T13:49:16.686Z,1012.46
2017-02-19T13:49:57.303Z,1012.43
2017-02-19T13:50:37.889Z,1012.42
2017-02-19T13:51:18.522Z,1012.4
2017-02-19T13:51:59.137Z,1012.42
2017-02-19T13:52:39.819Z,1012.41
2017-02-19T13:53:20.442Z,1012.41
2017-02-19T13:54:01.038Z,1012.4
2017-02-19T13:54:41.648Z,1012.42
2017-02-19T13:55:22.238Z,1012.43
2017-02-19T13:56:02.855Z,1012.43
2017-02-19T13:56:43.462Z,1012.39
2017-02-19T13:57:24.067Z,1012.44
2017-02-19T13:58:04.698Z,1012.42
2017-02-19T13:58:45.281Z,1012.47
2017-02-19T13:59:25.884Z,1012.45
2017-02-19T14:00:06.468Z,1012.42
2017-02-19T14:00:47.158Z,1012.42
2017-02-19T14:01:27.736Z,1012.44
2017-02-19T14:02:08.331Z,1012.45
2017-02-19T14:02:48.908Z,1012.38
2017-02-19T14:03:29.474Z,1012.42
2017-02-19T14:04:10.049Z,1012.38
2017-02-19T14:04:50.630Z,1012.37
2017-02-19T14:05:31.218Z,1012.42
2017-02-19T14:06:11.825Z,1012.39
2017-02-19T14:06:52.454Z,1012.37
2017-02-19T14:07:33.048Z,1012.34
2017-02-19T14:08:13.637Z,1012.35
2017-02-19T14:08:54.247Z,1012.34
2017-02-19T14:09:34.823Z,1012.35
2017-02-19T14:10:15.419Z,1012.39
2017-02-19T14:10:55.991Z,1012.44
2017-02-19T14:11:36.600Z,1012.37
2017-02-19T14:12:17.228Z,1012.36
2017-02-19T14:12:57.797Z,1012.39
2017-02-19T14:13:38.410Z,1012.42
2017-02-19T14:14:18.978Z,1012.4
2017-02-19T14:14:59.600Z,1012.42
2017-02-19T14:15:40.178Z,1012.38
2017-02-19T14:16:20.759Z,1012.38
2017-02-19T14:17:01.358Z,1012.4
2017-02-19T14:17:41.943Z,1012.4
2017-02-19T14:18:22.525Z,1012.4
2017-02-19T14:19:03.144Z,1012.38
2017-02-19T14:19:43.718Z,1012.39
2017-02-19T14:20:24.312Z,1012.4
2017-02-19T14:21:04.914Z,1012.38
2017-02-19T14:21:45.992Z,1012.39
2017-02-19T14:22:26.572Z,1012.39
2017-02-19T14:23:07.156Z,1012.39
2017-02-19T14:23:47.740Z,1012.36
2017-02-19T14:24:28.319Z,1012.39
2017-02-19T14:25:08.909Z,1012.4
2017-02-19T14:25:49.506Z,1012.44
2017-02-19T14:26:30.081Z,1012.46
2017-02-19T14:27:10.662Z,1012.44
2017-02-19T14:27:51.251Z,1012.46
2017-02-19T14:28:31.815Z,1012.45
2017-02-19T14:29:12.397Z,1012.45
2017-02-19T14:29:52.990Z,1012.43
2017-02-19T14:30:33.565Z,1012.42
2017-02-19T14:31:14.134Z,1012.47
2017-02-19T14:31:54.720Z,1012.45
2017-02-19T14:32:35.310Z,1012.46
2017-02-19T14:33:15.893Z,1012.47
2017-02-19T14:33:56.503Z,1012.45
2017-02-19T14:34:37.066Z,1012.49
2017-02-19T14:35:17.644Z,1012.44
2017-02-19T14:35:58.247Z,1012.47
2017-02-19T14:36:38.821Z,1012.5
2017-02-19T14:37:19.401Z,1012.5
2017-02-19T14:37:59.976Z,1012.45
2017-02-19T14:38:40.562Z,1012.46
2017-02-19T14:39:21.186Z,1012.5
2017-02-19T14:40:01.772Z,1012.46
2017-02-19T14:40:42.367Z,1012.53
2017-02-19T14:41:22.956Z,1012.49
2017-02-19T14:42:03.532Z,1012.5
2017-02-19T14:42:44.163Z,1012.51
2017-02-19T14:43:24.736Z,1012.49
2017-02-19T14:44:05.323Z,1012.52
2017-02-19T14:44:45.922Z,1012.54
2017-02-19T14:45:26.508Z,1012.47
2017-02-19T14:46:07.079Z,1012.48
2017-02-19T14:46:47.671Z,1012.49
2017-02-19T14:47:28.264Z,1012.48
2017-02-19T14:48:08.849Z,1012.48
2017-02-19T14:48:49.429Z,1012.45
2017-02-19T14:49:30.044Z,1012.48
2017-02-19T14:50:10.656Z,1012.49
2017-02-19T14:50:51.255Z,1012.43
2017-02-19T14:51:31.818Z,1012.45
2017-02-19T14:52:12.460Z,1012.46
2017-02-19T14:52:53.041Z,1012.49
2017-02-19T14:53:33.634Z,1012.45
2017-02-19T14:54:14.239Z,1012.44
2017-02-19T14:54:54.845Z,1012.49
2017-02-19T14:55:35.414Z,1012.47
2017-02-19T14:56:16.046Z,1012.46
2017-02-19T14:56:56.608Z,1012.41
2017-02-19T14:57:37.206Z,1012.49
2017-02-19T14:58:17.864Z,1012.45
2017-02-19T14:58:58.469Z,1012.47
2017-02-19T14:59:39.036Z,1012.43
2017-02-19T15:00:19.618Z,1012.42
2017-02-19T15:01:00.252Z,1012.47
2017-02-19T15:01:40.856Z,1012.47
2017-02-19T15:02:21.452Z,1012.41
2017-02-19T15:03:02.058Z,1012.43
2017-02-19T15:03:42.661Z,1012.41
2017-02-19T15:04:23.292Z,1012.42
2017-02-19T15:05:03.870Z,1012.43
2017-02-19T15:05:44.483Z,1012.39
2017-02-19T15:06:25.094Z,1012.42
2017-02-19T15:07:05.716Z,1012.38
2017-02-19T15:07:46.334Z,1012.37
2017-02-19T15:08:26.935Z,1012.37
2017-02-19T15:09:07.532Z,1012.41
2017-02-19T15:09:48.178Z,1012.43
2017-02-19T15:10:28.790Z,1012.43
2017-02-19T15:11:09.427Z,1012.42
2017-02-19T15:11:50.015Z,1012.41
2017-02-19T15:12:30.610Z,1012.39
2017-02-19T15:13:11.211Z,1012.42
2017-02-19T15:13:51.827Z,1012.4
2017-02-19T15:14:32.460Z,1012.4
2017-02-19T15:15:13.071Z,1012.44
2017-02-19T15:15:53.674Z,1012.42
2017-02-19T15:16:34.287Z,1012.37
2017-02-19T15:17:14.893Z,1012.44
2017-02-19T15:17:55.492Z,1012.42
2017-02-19T15:18:36.088Z,1012.45
2017-02-19T15:19:16.657Z,1012.43
2017-02-19T15:19:57.270Z,1012.43
2017-02-19T15:20:37.878Z,1012.4
2017-02-19T15:21:18.469Z,1012.4
2017-02-19T15:21:59.072Z,1012.37
2017-02-19T15:22:39.686Z,1012.4
2017-02-19T15:23:20.293Z,1012.38
2017-02-19T15:24:00.912Z,1012.4
2017-02-19T15:24:41.554Z,1012.4
2017-02-19T15:25:22.145Z,1012.39
2017-02-19T15:26:02.755Z,1012.38
2017-02-19T15:26:43.381Z,1012.39
2017-02-19T15:27:24.045Z,1012.44
2017-02-19T15:28:04.640Z,1012.41
2017-02-19T15:28:45.242Z,1012.37
2017-02-19T15:29:25.852Z,1012.48
2017-02-19T15:30:06.457Z,1012.45
2017-02-19T15:30:47.118Z,1012.47
2017-02-19T15:31:27.716Z,1012.45
2017-02-19T15:32:08.302Z,1012.49
2017-02-19T15:32:48.901Z,1012.47
2017-02-19T15:33:29.508Z,1012.5
2017-02-19T15:34:10.124Z,1012.49
2017-02-19T15:34:50.696Z,1012.5
2017-02-19T15:35:31.279Z,1012.51
2017-02-19T15:36:11.887Z,1012.53
2017-02-19T15:36:52.493Z,1012.55
2017-02-19T15:37:33.091Z,1012.53
2017-02-19T15:38:13.682Z,1012.49
2017-02-19T15:38:54.309Z,1012.42
2017-02-19T15:39:34.910Z,1012.43
2017-02-19T15:40:15.504Z,1012.47
2017-02-19T15:40:56.110Z,1012.43
2017-02-19T15:41:36.714Z,1012.46
2017-02-19T15:42:17.350Z,1012.45
2017-02-19T15:42:57.956Z,1012.43
2017-02-19T15:43:38.568Z,1012.4
2017-02-19T15:44:19.170Z,1012.39
2017-02-19T15:44:59.763Z,1012.4
2017-02-19T15:45:40.359Z,1012.36
2017-02-19T15:46:20.971Z,1012.39
2017-02-19T15:47:01.575Z,1012.29
2017-02-19T15:47:42.209Z,1012.3
2017-02-19T15:48:22.869Z,1012.31
2017-02-19T15:49:03.460Z,1012.31
2017-02-19T15:49:44.117Z,1012.35
2017-02-19T15:50:24.684Z,1012.39
2017-02-19T15:51:05.275Z,1012.37
2017-02-19T15:51:45.887Z,1012.35
2017-02-19T15:52:26.488Z,1012.38
2017-02-19T15:53:07.106Z,1012.36
2017-02-19T15:53:47.711Z,1012.36
2017-02-19T15:54:28.303Z,1012.34
2017-02-19T15:55:08.899Z,1012.34
2017-02-19T15:55:49.496Z,1012.33
2017-02-19T15:56:30.103Z,1012.35
2017-02-19T15:57:10.684Z,1012.36
2017-02-19T15:57:51.268Z,1012.33
2017-02-19T15:58:31.839Z,1012.28
2017-02-19T15:59:12.469Z,1012.31
2017-02-19T15:59:53.042Z,1012.29
2017-02-19T16:00:33.662Z,1012.32
2017-02-19T16:01:14.256Z,1012.28
2017-02-19T16:01:54.899Z,1012.29
2017-02-19T16:02:35.508Z,1012.28
2017-02-19T16:03:16.099Z,1012.31
2017-02-19T16:03:56.696Z,1012.28
2017-02-19T16:04:37.332Z,1012.3
2017-02-19T16:05:17.953Z,1012.22
2017-02-19T16:05:58.566Z,1012.25
2017-02-19T16:06:39.181Z,1012.26
2017-02-19T16:07:19.776Z,1012.25
2017-02-19T16:08:00.373Z,1012.26
2017-02-19T16:08:40.966Z,1012.3
2017-02-19T16:09:21.556Z,1012.25
2017-02-19T16:10:02.135Z,1012.24
2017-02-19T16:10:42.741Z,1012.28
2017-02-19T16:11:23.341Z,1012.27
2017-02-19T16:12:03.948Z,1012.25
2017-02-19T16:12:44.543Z,1012.24
2017-02-19T16:13:25.150Z,1012.22
2017-02-19T16:14:05.783Z,1012.27
2017-02-19T16:14:46.365Z,1012.22
2017-02-19T16:15:26.998Z,1012.23
2017-02-19T16:16:07.617Z,1012.24
2017-02-19T16:16:48.232Z,1012.21
2017-02-19T16:17:28.813Z,1012.21
2017-02-19T16:18:09.418Z,1012.22
2017-02-19T16:18:50.009Z,1012.21
2017-02-19T16:19:30.586Z,1012.22
2017-02-19T16:20:11.160Z,1012.2
2017-02-19T16:20:51.739Z,1012.22
2017-02-19T16:21:32.324Z,1012.17
2017-02-19T16:22:12.904Z,1012.21
2017-02-19T16:22:53.521Z,1012.18
2017-02-19T16:23:34.096Z,1012.19
2017-02-19T16:24:14.670Z,1012.19
2017-02-19T16:24:55.260Z,1012.18
2017-02-19T16:25:35.821Z,1012.2
2017-02-19T16:26:16.402Z,1012.19
2017-02-19T16:26:56.993Z,1012.16
2017-02-19T16:27:37.616Z,1012.16
2017-02-19T16:28:18.194Z,1012.18
2017-02-19T16:28:58.785Z,1012.14
2017-02-19T16:29:39.377Z,1012.2
2017-02-19T16:30:19.986Z,1012.18
2017-02-19T16:31:00.589Z,1012.2
2017-02-19T16:31:41.163Z,1012.12
2017-02-19T16:32:21.756Z,1012.13
2017-02-19T16:33:02.338Z,1012.15
2017-02-19T16:33:42.916Z,1012.12
2017-02-19T16:34:23.520Z,1012.16
2017-02-19T16:35:04.115Z,1012.1
2017-02-19T16:35:44.719Z,1012.1
2017-02-19T16:36:25.354Z,1012.13
2017-02-19T16:37:05.957Z,1012.12
2017-02-19T16:37:46.557Z,1012.12
2017-02-19T16:38:27.199Z,1012.1
2017-02-19T16:39:07.768Z,1012.13
2017-02-19T16:39:48.376Z,1012.11
2017-02-19T16:40:28.967Z,1012.12
2017-02-19T16:41:09.578Z,1012.14
2017-02-19T16:41:50.165Z,1012.18
2017-02-19T16:42:30.791Z,1012.16
2017-02-19T16:43:11.405Z,1012.16
2017-02-19T16:43:51.987Z,1012.2
2017-02-19T16:44:32.573Z,1012.18
2017-02-19T16:45:13.175Z,1012.12
2017-02-19T16:45:53.749Z,1012.16
2017-02-19T16:46:34.340Z,1012.16
2017-02-19T16:47:14.933Z,1012.16
2017-02-19T16:47:55.509Z,1012.16
2017-02-19T16:48:36.091Z,1012.12
2017-02-19T16:49:16.716Z,1012.14
2017-02-19T16:49:57.307Z,1012.15
2017-02-19T16:50:37.885Z,1012.16
2017-02-19T16:51:18.496Z,1012.2
2017-02-19T16:51:59.082Z,1012.15
2017-02-19T16:52:39.659Z,1012.2
2017-02-19T16:53:20.249Z,1012.21
2017-02-19T16:54:00.846Z,1012.22
2017-02-19T16:54:41.428Z,1012.2
2017-02-19T16:55:22.003Z,1012.18
2017-02-19T16:56:02.589Z,1012.18
2017-02-19T16:56:43.159Z,1012.2
2017-02-19T16:57:23.747Z,1012.2
2017-02-19T16:58:04.333Z,1012.19
2017-02-19T16:58:44.933Z,1012.26
2017-02-19T16:59:25.502Z,1012.31
2017-02-19T17:00:06.066Z,1012.29
2017-02-19T17:00:46.650Z,1012.28
2017-02-19T17:01:27.247Z,1012.28
2017-02-19T17:02:07.846Z,1012.3
2017-02-19T17:02:48.429Z,1012.3
2017-02-19T17:03:29.010Z,1012.33
2017-02-19T17:04:09.648Z,1012.3
2017-02-19T17:04:50.246Z,1012.33
2017-02-19T17:05:30.840Z,1012.33
2017-02-19T17:06:11.414Z,1012.33
2017-02-19T17:06:52.003Z,1012.35
2017-02-19T17:07:32.606Z,1012.34
2017-02-19T17:08:13.256Z,1012.34
2017-02-19T17:08:53.832Z,1012.36
2017-02-19T17:09:34.396Z,1012.35
2017-02-19T17:10:14.969Z,1012.33
2017-02-19T17:10:55.554Z,1012.35
2017-02-19T17:11:36.170Z,1012.32
2017-02-19T17:12:16.773Z,1012.32
2017-02-19T17:12:57.379Z,1012.32
2017-02-19T17:13:37.968Z,1012.29
2017-02-19T17:14:18.590Z,1012.3
2017-02-19T17:14:59.170Z,1012.26
2017-02-19T17:15:39.751Z,1012.28
2017-02-19T17:16:20.320Z,1012.28
2017-02-19T17:17:00.919Z,1012.29
2017-02-19T17:17:41.595Z,1012.23
2017-02-19T17:18:22.261Z,1012.23
2017-02-19T17:19:02.904Z,1012.22
2017-02-19T17:19:43.571Z,1012.21
2017-02-19T17:20:24.158Z,1012.21
2017-02-19T17:21:04.781Z,1012.24
2017-02-19T17:21:45.466Z,1012.25
2017-02-19T17:22:26.051Z,1012.24
2017-02-19T17:23:06.683Z,1012.25
2017-02-19T17:23:47.300Z,1012.24
2017-02-19T17:24:27.872Z,1012.23
2017-02-19T17:25:08.447Z,1012.25
2017-02-19T17:25:49.017Z,1012.28
2017-02-19T17:26:29.618Z,1012.26
2017-02-19T17:27:10.180Z,1012.28
2017-02-19T17:27:50.764Z,1012.27
2017-02-19T17:28:31.363Z,1012.22
2017-02-19T17:29:11.932Z,1012.24
2017-02-19T17:29:52.518Z,1012.18
2017-02-19T17:30:33.086Z,1012.17
2017-02-19T17:31:13.694Z,1012.21
2017-02-19T17:31:54.268Z,1012.19
2017-02-19T17:32:34.834Z,1012.21
2017-02-19T17:33:15.452Z,1012.19
2017-02-19T17:33:56.063Z,1012.23
2017-02-19T17:34:36.654Z,1012.21
2017-02-19T17:35:17.227Z,1012.21
2017-02-19T17:35:57.836Z,1012.25
2017-02-19T17:36:38.443Z,1012.23
2017-02-19T17:37:19.036Z,1012.18
2017-02-19T17:37:59.615Z,1012.25
2017-02-19T17:38:40.233Z,1012.28
2017-02-19T17:39:20.827Z,1012.28
2017-02-19T17:40:01.404Z,1012.27
2017-02-19T17:40:41.988Z,1012.23
2017-02-19T17:41:22.565Z,1012.21
2017-02-19T17:42:03.144Z,1012.24
2017-02-19T17:42:43.749Z,1012.26
2017-02-19T17:43:24.353Z,1012.2
2017-02-19T17:44:04.938Z,1012.19
2017-02-19T17:44:45.536Z,1012.2
2017-02-19T17:45:26.125Z,1012.17
2017-02-19T17:46:06.699Z,1012.16
2017-02-19T17:46:47.280Z,1012.14
2017-02-19T17:47:27.874Z,1012.17
2017-02-19T17:48:08.450Z,1012.16
2017-02-19T17:48:49.033Z,1012.15
2017-02-19T17:49:29.599Z,1012.18
2017-02-19T17:50:10.167Z,1012.2
2017-02-19T17:50:50.741Z,1012.21
2017-02-19T17:51:31.305Z,1012.16
2017-02-19T17:52:11.892Z,1012.27
2017-02-19T17:52:52.477Z,1012.24
2017-02-19T17:53:33.057Z,1012.27
2017-02-19T17:54:13.656Z,1012.23
2017-02-19T17:54:54.241Z,1012.21
2017-02-19T17:55:34.828Z,1012.25
2017-02-19T17:56:15.402Z,1012.25
2017-02-19T17:56:55.993Z,1012.24
2017-02-19T17:57:36.567Z,1012.23
2017-02-19T17:58:17.155Z,1012.19
2017-02-19T17:58:57.729Z,1012.26
2017-02-19T17:59:38.296Z,1012.22
2017-02-19T18:00:18.875Z,1012.21
2017-02-19T18:00:59.453Z,1012.18
2017-02-19T18:01:40.035Z,1012.2
2017-02-19T18:02:20.618Z,1012.22
2017-02-19T18:03:01.194Z,1012.13
2017-02-19T18:03:41.769Z,1012.19
2017-02-19T18:04:22.367Z,1012.16
2017-02-19T18:05:02.973Z,1012.15
2017-02-19T18:05:43.576Z,1012.21
2017-02-19T18:06:24.162Z,1012.18
2017-02-19T18:07:04.756Z,1012.15
2017-02-19T18:07:45.328Z,1012.16
2017-02-19T18:08:25.923Z,1012.15
2017-02-19T18:09:06.518Z,1012.19
2017-02-19T18:09:47.120Z,1012.23
2017-02-19T18:10:27.698Z,1012.19
2017-02-19T18:11:08.255Z,1012.22
2017-02-19T18:11:48.828Z,1012.23
2017-02-19T18:12:29.390Z,1012.23
2017-02-19T18:13:09.981Z,1012.2
2017-02-19T18:13:50.582Z,1012.21
2017-02-19T18:14:31.160Z,1012.24
2017-02-19T18:15:11.786Z,1012.24
2017-02-19T18:15:52.324Z,1012.27
2017-02-19T18:16:32.920Z,1012.26
2017-02-19T18:17:13.496Z,1012.24
2017-02-19T18:17:54.096Z,1012.25
2017-02-19T18:18:34.707Z,1012.21
2017-02-19T18:19:15.306Z,1012.23
2017-02-19T18:19:55.912Z,1012.25
2017-02-19T18:20:36.519Z,1012.25
2017-02-19T18:21:17.107Z,1012.22
2017-02-19T18:21:57.715Z,1012.25
2017-02-19T18:22:38.339Z,1012.24
2017-02-19T18:23:18.878Z,1012.24
2017-02-19T18:23:59.470Z,1012.25
2017-02-19T18:24:40.056Z,1012.24
2017-02-19T18:25:20.663Z,1012.26
2017-02-19T18:26:01.215Z,1012.3
2017-02-19T18:26:41.782Z,1012.3
2017-02-19T18:27:22.364Z,1012.31
2017-02-19T18:28:02.943Z,1012.24
2017-02-19T18:28:43.535Z,1012.25
2017-02-19T18:29:24.148Z,1012.26
2017-02-19T18:30:04.763Z,1012.22
2017-02-19T18:30:46.398Z,1012.22
2017-02-19T18:31:26.915Z,1012.2
2017-02-19T18:32:07.491Z,1012.27
2017-02-19T18:32:48.066Z,1012.2
2017-02-19T18:33:28.669Z,1012.23
2017-02-19T18:34:09.387Z,1012.25
2017-02-19T18:34:49.976Z,1012.23
2017-02-19T18:35:30.671Z,1012.24
2017-02-19T18:36:11.298Z,1012.25
2017-02-19T18:36:52.014Z,1012.24
2017-02-19T18:37:33.050Z,1012.24
2017-02-19T18:38:14.420Z,1012.21
2017-02-19T18:38:55.018Z,1012.22
2017-02-19T18:39:35.596Z,1012.2
2017-02-19T18:40:16.221Z,1012.17
2017-02-19T18:40:56.827Z,1012.17
2017-02-19T18:41:37.420Z,1012.19
2017-02-19T18:42:18.026Z,1012.15
2017-02-19T18:42:58.655Z,1012.18
2017-02-19T18:43:39.233Z,1012.16
2017-02-19T18:44:19.848Z,1012.15
2017-02-19T18:45:00.465Z,1012.15
2017-02-19T18:45:41.651Z,1012.19
2017-02-19T18:46:22.236Z,1012.13
2017-02-19T18:47:02.809Z,1012.19
2017-02-19T18:47:43.393Z,1012.12
2017-02-19T18:48:23.975Z,1012.13
2017-02-19T18:49:04.524Z,1012.11
2017-02-19T18:49:45.106Z,1012.12
2017-02-19T18:50:25.702Z,1012.14